West Lima, Wisconsin
Current Conditions -  °F | °C
As of 11:15 PM on Monday 20 Oct 2014 (Local Time) from KY51 Reporting Station
Scattered Clouds Scattered Clouds  
Wind Chill: 44°   Ceiling: Unl
Heat Index: 44°   Visibility: 10mi
Dew Point: 38°   Wind: 3mph
Humidity: 80%   Direction: 20°NNE
Pressure: 30.05"   Gusts: NA
Location:  43.6192°N, 90.6193°W
Report Text: KY51 210415Z AUTO 02003KT 10SM SCT037 07/04 A3005 RMK AO1 T00680035
Loading
Personal Weather Stations






























Interactive Weather Map
Tropical Storm Tracking
New forecast layout! Learn more

10-Day Weather Forecast

Advertisements
Track Severe Weather on mobile